< < Back
Terminal Aerodrome Forecast


Current Version              Previous Versions:   1  2  3  4  5  6  7  8  9  

Terminal Aerodrome Forecast

372
FTUS42 KCAE 201700
TAFCAE
TAF
KCAE 201724Z 2018/2118 28006KT P6SM SCT050
     FM210000 VRB03KT P6SM SCT250
     FM211100 00000KT 4SM BR SCT250
     FM211300 VRB04KT P6SM SCT250=

Latest METAR

932
SAUS80 KWBC 210600 CCA
MTRCAE
METAR KCAE 210556Z 26005KT 10SM BKN180 27/21 A3002 RMK AO2 SLP160
T02670211 10311 20267 58005


USA.gov is the U.S. government's official web portal to all federal, state and local government web resources and services.